Time;durP1;ratioP1;P1;durP2;ratioP2;P2;SDS_P1;SDS_P2;PMS_P1;PMS_P2;Temp;Humidity;BMP_temperature;BMP_pressure;BME280_temperature;BME280_humidity;BME280_pressure;Samples;Min_cycle;Max_cycle;Signal;HPM_P1;HPM_P2
2023/07/25 00:00:29;;;;;;;9.40;3.80;;;17.20;99.90;;;;;;4991391;28;20049;-85
2023/07/25 00:02:54;;;;;;;7.63;4.30;;;17.20;99.90;;;;;;4989876;28;20164;-85
2023/07/25 00:05:20;;;;;;;8.27;3.92;;;17.20;99.90;;;;;;4990487;28;20129;-85
2023/07/25 00:07:45;;;;;;;6.53;3.97;;;17.10;99.90;;;;;;4990352;28;20033;-86
2023/07/25 00:10:11;;;;;;;7.70;4.20;;;17.10;99.90;;;;;;4989681;28;20397;-85
2023/07/25 00:12:37;;;;;;;8.55;4.20;;;17.10;99.90;;;;;;4988934;28;20752;-85
2023/07/25 00:15:04;;;;;;;6.97;3.97;;;17.10;99.90;;;;;;4989324;28;20072;-85
2023/07/25 00:17:30;;;;;;;5.97;4.10;;;17.10;99.90;;;;;;4990341;28;20046;-85
2023/07/25 00:19:56;;;;;;;5.85;4.07;;;17.10;99.90;;;;;;4990997;28;20041;-85
2023/07/25 00:22:22;;;;;;;4.90;4.05;;;17.10;99.90;;;;;;4990355;28;20038;-85
2023/07/25 00:24:47;;;;;;;6.15;4.18;;;17.10;99.90;;;;;;4989851;28;20034;-85
2023/07/25 00:27:13;;;;;;;6.60;4.10;;;17.10;99.90;;;;;;4988555;28;20768;-85
2023/07/25 00:29:39;;;;;;;8.02;3.97;;;17.10;99.90;;;;;;4989493;28;20165;-85
2023/07/25 00:32:05;;;;;;;7.85;4.28;;;17.10;99.90;;;;;;4990398;28;20094;-85
2023/07/25 00:34:31;;;;;;;6.13;3.88;;;17.10;99.90;;;;;;4988123;28;20431;-85
2023/07/25 00:36:57;;;;;;;7.05;3.75;;;17.10;99.90;;;;;;4988834;28;20112;-85
2023/07/25 00:39:22;;;;;;;6.07;4.20;;;17.10;99.90;;;;;;4989317;28;20096;-85
2023/07/25 00:41:48;;;;;;;9.50;3.97;;;17.00;99.90;;;;;;4989691;28;20045;-85
2023/07/25 00:44:13;;;;;;;7.15;4.03;;;17.10;99.90;;;;;;4990340;28;20034;-85
2023/07/25 00:46:41;;;;;;;6.78;4.55;;;17.00;99.90;;;;;;4989344;28;20034;-85
2023/07/25 00:49:07;;;;;;;6.22;4.30;;;17.00;99.90;;;;;;4990486;28;20078;-85
2023/07/25 00:51:32;;;;;;;6.70;4.00;;;17.00;99.90;;;;;;4989091;28;20117;-85
2023/07/25 00:53:58;;;;;;;8.60;4.00;;;17.00;99.90;;;;;;4989767;28;20209;-85
2023/07/25 00:56:24;;;;;;;9.35;4.55;;;16.90;99.90;;;;;;4988588;28;20113;-84
2023/07/25 00:58:49;;;;;;;7.50;4.35;;;16.90;99.90;;;;;;4989546;28;20440;-85
2023/07/25 01:01:15;;;;;;;8.25;4.07;;;16.90;99.90;;;;;;4988358;28;20037;-85
2023/07/25 01:03:41;;;;;;;6.43;4.05;;;16.90;99.90;;;;;;4988424;28;20205;-85
2023/07/25 01:06:12;;;;;;;6.03;4.20;;;16.90;99.90;;;;;;4987241;28;20050;-85
2023/07/25 01:08:54;;;;;;;7.57;4.40;;;16.90;99.90;;;;;;4988988;28;20045;-85
2023/07/25 01:11:21;;;;;;;9.13;4.22;;;16.90;99.90;;;;;;4987585;28;20041;-85
2023/07/25 01:13:47;;;;;;;5.45;3.88;;;16.90;99.90;;;;;;4988651;28;20353;-85
2023/07/25 01:16:15;;;;;;;8.60;4.00;;;16.90;99.90;;;;;;4988250;28;20025;-85
2023/07/25 01:18:43;;;;;;;5.35;3.92;;;16.90;99.90;;;;;;4988009;28;20045;-85
2023/07/25 01:21:11;;;;;;;9.15;4.22;;;16.90;99.90;;;;;;4988356;28;20033;-85
2023/07/25 01:23:37;;;;;;;7.55;3.75;;;16.80;99.90;;;;;;4988862;28;20117;-84
2023/07/25 01:26:03;;;;;;;6.22;3.83;;;16.80;99.90;;;;;;4987287;28;20963;-85
2023/07/25 01:28:28;;;;;;;7.35;4.15;;;16.80;99.90;;;;;;4988719;28;20030;-86
2023/07/25 01:30:54;;;;;;;10.90;4.22;;;16.80;99.90;;;;;;4988898;28;20548;-85
2023/07/25 01:33:19;;;;;;;8.30;4.50;;;16.80;99.90;;;;;;4987646;28;20135;-84
2023/07/25 01:35:45;;;;;;;7.45;3.80;;;16.80;99.90;;;;;;4988367;28;20039;-85
2023/07/25 01:38:10;;;;;;;7.53;4.65;;;16.80;99.90;;;;;;4987766;28;20036;-85
2023/07/25 01:40:39;;;;;;;8.73;4.03;;;16.80;99.90;;;;;;4987997;28;20417;-85
2023/07/25 01:43:08;;;;;;;6.85;4.32;;;16.80;99.90;;;;;;4987955;28;20404;-85
2023/07/25 01:45:34;;;;;;;10.32;5.00;;;16.80;99.90;;;;;;4987050;28;20476;-85
2023/07/25 01:47:59;;;;;;;8.73;3.95;;;16.80;99.90;;;;;;4987156;28;20068;-85
2023/07/25 01:50:29;;;;;;;7.85;3.92;;;16.80;99.90;;;;;;4986412;28;21534;-85
2023/07/25 01:52:55;;;;;;;7.13;4.03;;;16.70;99.90;;;;;;4988395;28;20041;-85
2023/07/25 01:55:20;;;;;;;6.55;3.40;;;16.80;99.90;;;;;;4987854;28;20096;-85
2023/07/25 01:57:46;;;;;;;6.78;3.85;;;16.80;99.90;;;;;;4987624;28;20057;-86
2023/07/25 02:00:12;;;;;;;6.15;3.92;;;16.80;99.90;;;;;;4988145;28;20045;-86
2023/07/25 02:02:38;;;;;;;7.53;3.78;;;16.80;99.90;;;;;;4987179;28;20034;-85
2023/07/25 02:05:04;;;;;;;7.93;3.95;;;16.80;99.90;;;;;;4986773;28;20053;-85
2023/07/25 02:07:29;;;;;;;8.63;4.47;;;16.80;99.90;;;;;;4986665;28;20105;-87
2023/07/25 02:09:55;;;;;;;7.95;4.47;;;16.80;99.90;;;;;;4987444;28;20085;-87
2023/07/25 02:12:20;;;;;;;7.43;4.10;;;16.80;99.90;;;;;;4987700;28;20368;-86
2023/07/25 02:14:46;;;;;;;5.97;4.00;;;16.80;99.90;;;;;;4990876;28;20125;-87
2023/07/25 02:17:11;;;;;;;6.07;3.70;;;16.80;99.90;;;;;;4989072;28;20038;-87
2023/07/25 02:19:38;;;;;;;5.50;4.00;;;16.80;99.90;;;;;;4989118;28;20026;-87
2023/07/25 02:22:04;;;;;;;7.05;4.00;;;16.80;99.90;;;;;;4990721;28;20038;-87
2023/07/25 02:24:30;;;;;;;9.38;4.32;;;16.70;99.90;;;;;;4988048;28;20712;-86
2023/07/25 02:26:55;;;;;;;7.53;4.38;;;16.70;99.90;;;;;;4990666;28;20026;-88
2023/07/25 02:29:21;;;;;;;8.18;4.07;;;16.70;99.90;;;;;;4988905;28;20463;-87
2023/07/25 02:31:47;;;;;;;9.50;4.53;;;16.70;99.90;;;;;;4989340;28;20037;-87
2023/07/25 02:34:12;;;;;;;7.82;4.40;;;16.70;99.90;;;;;;4989160;28;20034;-86
2023/07/25 02:36:38;;;;;;;12.15;4.93;;;16.70;99.90;;;;;;4990665;28;20052;-87
2023/07/25 02:39:03;;;;;;;10.43;4.78;;;16.70;99.90;;;;;;4990677;28;20033;-87
2023/07/25 02:41:29;;;;;;;6.32;4.25;;;16.60;99.90;;;;;;4989858;28;20243;-86
2023/07/25 02:43:54;;;;;;;8.98;4.38;;;16.60;99.90;;;;;;4990504;28;20104;-86
2023/07/25 02:46:20;;;;;;;6.32;4.03;;;16.60;99.90;;;;;;4990469;28;20048;-87
2023/07/25 02:48:45;;;;;;;7.20;3.90;;;16.60;99.90;;;;;;4989667;28;20777;-86
2023/07/25 02:51:12;;;;;;;7.55;4.07;;;16.50;99.90;;;;;;4989170;28;20138;-86
2023/07/25 02:53:37;;;;;;;7.03;4.20;;;16.50;99.90;;;;;;4991149;28;20655;-86
2023/07/25 02:56:03;;;;;;;5.95;4.07;;;16.50;99.90;;;;;;4989776;28;20118;-87
2023/07/25 02:58:28;;;;;;;8.00;4.72;;;16.50;99.90;;;;;;4991483;28;20027;-87
2023/07/25 03:00:54;;;;;;;6.93;4.00;;;16.50;99.90;;;;;;4990013;28;20019;-87
2023/07/25 03:03:20;;;;;;;5.22;3.90;;;16.50;99.90;;;;;;4990448;28;20052;-86
2023/07/25 03:05:45;;;;;;;5.80;4.43;;;16.50;99.90;;;;;;4990642;28;20034;-87
2023/07/25 03:08:11;;;;;;;4.78;3.80;;;16.50;99.90;;;;;;4988912;28;20067;-86
2023/07/25 03:10:36;;;;;;;6.53;4.50;;;16.50;99.90;;;;;;4991241;28;20425;-86
2023/07/25 03:13:02;;;;;;;5.95;4.40;;;16.50;99.90;;;;;;4990076;28;20515;-86
2023/07/25 03:15:27;;;;;;;7.22;4.32;;;16.50;99.90;;;;;;4989250;28;20018;-86
2023/07/25 03:17:54;;;;;;;8.20;4.45;;;16.50;99.90;;;;;;4988828;28;21519;-86
2023/07/25 03:20:19;;;;;;;6.53;4.32;;;16.50;99.90;;;;;;4990839;28;20896;-86
2023/07/25 03:22:45;;;;;;;7.47;3.83;;;16.50;99.90;;;;;;4989915;28;20070;-86
2023/07/25 03:25:10;;;;;;;7.97;4.07;;;16.50;99.90;;;;;;4988650;28;20073;-87
2023/07/25 03:27:36;;;;;;;9.63;4.43;;;16.60;99.90;;;;;;4989000;28;20654;-86
2023/07/25 03:30:04;;;;;;;4.82;3.70;;;16.60;99.90;;;;;;4988732;28;20043;-87
2023/07/25 03:32:29;;;;;;;6.15;4.10;;;16.60;99.90;;;;;;4988725;28;20034;-87
2023/07/25 03:34:55;;;;;;;4.68;3.65;;;16.60;99.90;;;;;;4989263;28;20037;-86
2023/07/25 03:37:20;;;;;;;6.43;4.53;;;16.60;99.90;;;;;;4987542;28;20037;-86
2023/07/25 03:39:46;;;;;;;7.35;4.35;;;16.60;99.90;;;;;;4988719;28;20670;-86
2023/07/25 03:42:11;;;;;;;6.97;3.92;;;16.60;99.90;;;;;;4989043;28;20584;-86
2023/07/25 03:44:37;;;;;;;6.55;4.68;;;16.60;99.90;;;;;;4988248;28;20030;-85
2023/07/25 03:47:03;;;;;;;6.13;4.90;;;16.60;99.90;;;;;;4988093;28;20034;-86
2023/07/25 03:49:28;;;;;;;9.68;4.10;;;16.60;99.90;;;;;;4986766;28;20739;-86
2023/07/25 03:51:54;;;;;;;9.18;4.30;;;16.50;99.90;;;;;;4989510;28;20069;-86
2023/07/25 03:54:23;;;;;;;5.18;3.90;;;16.50;99.90;;;;;;4987637;28;20053;-85
2023/07/25 03:56:49;;;;;;;7.68;3.92;;;16.50;99.90;;;;;;4987742;28;20577;-86
2023/07/25 03:59:15;;;;;;;6.57;4.15;;;16.50;99.90;;;;;;4988122;28;20481;-86
2023/07/25 04:01:40;;;;;;;5.50;4.25;;;16.50;99.90;;;;;;4988803;28;20034;-86
2023/07/25 04:04:06;;;;;;;6.43;4.20;;;16.40;99.90;;;;;;4988368;28;20038;-86
2023/07/25 04:06:32;;;;;;;9.43;4.40;;;16.40;99.90;;;;;;4987589;28;20501;-86
2023/07/25 04:08:57;;;;;;;6.78;4.13;;;16.40;99.90;;;;;;4987967;28;20026;-86
2023/07/25 04:11:23;;;;;;;6.13;4.20;;;16.40;99.90;;;;;;4987949;28;20117;-86
2023/07/25 04:13:48;;;;;;;7.28;4.00;;;16.40;99.90;;;;;;4988654;28;20022;-86
2023/07/25 04:16:14;;;;;;;7.32;3.95;;;16.40;99.90;;;;;;4986872;28;20039;-86
2023/07/25 04:18:39;;;;;;;8.00;4.65;;;16.40;99.90;;;;;;4988500;28;20050;-85
2023/07/25 04:21:05;;;;;;;7.07;4.32;;;16.40;99.90;;;;;;4987130;28;20061;-86
2023/07/25 04:23:30;;;;;;;7.22;3.90;;;16.40;99.90;;;;;;4988833;28;20042;-86
2023/07/25 04:25:56;;;;;;;6.38;4.53;;;16.30;99.90;;;;;;4987307;28;20038;-85
2023/07/25 04:28:21;;;;;;;5.43;3.97;;;16.30;99.90;;;;;;4989434;28;20034;-86
2023/07/25 04:30:47;;;;;;;7.82;4.32;;;16.30;99.90;;;;;;4989773;28;20034;-86
2023/07/25 04:33:12;;;;;;;7.50;4.47;;;16.30;99.90;;;;;;4987143;28;20404;-86
2023/07/25 04:35:38;;;;;;;6.40;4.55;;;16.30;99.90;;;;;;4988955;28;20523;-86
2023/07/25 04:38:03;;;;;;;6.15;4.50;;;16.30;99.90;;;;;;4987410;28;20022;-85
2023/07/25 04:40:30;;;;;;;7.80;4.47;;;16.30;99.90;;;;;;4989141;28;20030;-86
2023/07/25 04:42:55;;;;;;;7.65;4.70;;;16.30;99.90;;;;;;4988910;28;20041;-86
2023/07/25 04:45:21;;;;;;;7.75;4.70;;;16.30;99.90;;;;;;4987618;28;21431;-86
2023/07/25 04:47:46;;;;;;;8.82;4.53;;;16.30;99.90;;;;;;4988851;28;20029;-85
2023/07/25 04:50:12;;;;;;;9.85;4.57;;;16.30;99.90;;;;;;4986312;28;20030;-86
2023/07/25 04:52:40;;;;;;;7.65;4.40;;;16.30;99.90;;;;;;4986097;28;21292;-86
2023/07/25 04:55:06;;;;;;;7.10;4.88;;;16.30;99.90;;;;;;4979812;28;20026;-86
2023/07/25 04:57:31;;;;;;;6.32;4.70;;;16.30;99.90;;;;;;4986143;28;20477;-86
2023/07/25 04:59:57;;;;;;;6.93;4.13;;;16.30;99.90;;;;;;4987291;28;20532;-87
2023/07/25 05:02:22;;;;;;;6.10;4.50;;;16.30;99.90;;;;;;4986569;28;20034;-87
2023/07/25 05:04:48;;;;;;;6.43;4.53;;;16.30;99.90;;;;;;4986809;28;20030;-86
2023/07/25 05:07:14;;;;;;;7.45;4.70;;;16.30;99.90;;;;;;4986775;28;20030;-87
2023/07/25 05:09:40;;;;;;;8.57;4.40;;;16.30;99.90;;;;;;4984441;28;20038;-87
2023/07/25 05:12:12;;;;;;;6.47;4.47;;;16.30;99.90;;;;;;4986094;28;20038;-87
2023/07/25 05:14:38;;;;;;;6.78;4.50;;;16.40;99.90;;;;;;4986470;28;20065;-86
2023/07/25 05:17:03;;;;;;;7.00;4.60;;;16.40;99.90;;;;;;4987158;28;20987;-87
2023/07/25 05:19:29;;;;;;;6.30;4.32;;;16.40;99.90;;;;;;4986147;28;20454;-86
2023/07/25 05:21:54;;;;;;;5.20;3.83;;;16.40;99.90;;;;;;4986123;28;20038;-76
2023/07/25 05:24:20;;;;;;;6.60;4.40;;;16.40;99.90;;;;;;4984127;28;20451;-76
2023/07/25 05:26:45;;;;;;;6.32;4.65;;;16.50;99.90;;;;;;4983223;28;20709;-77
2023/07/25 05:29:11;;;;;;;8.90;4.18;;;16.50;99.90;;;;;;4984326;28;20030;-77
2023/07/25 05:31:37;;;;;;;7.97;4.72;;;16.50;99.90;;;;;;4986030;28;20026;-77
2023/07/25 05:34:02;;;;;;;6.15;4.18;;;16.60;99.90;;;;;;4985020;28;20033;-85
2023/07/25 05:36:28;;;;;;;7.85;4.22;;;16.50;99.90;;;;;;4985451;28;20057;-85
2023/07/25 05:38:53;;;;;;;6.63;4.38;;;16.60;99.90;;;;;;4985976;28;20084;-85
2023/07/25 05:41:19;;;;;;;7.28;4.95;;;16.60;99.90;;;;;;4985586;28;20409;-85
2023/07/25 05:43:45;;;;;;;9.27;4.70;;;16.50;99.90;;;;;;4985253;28;20121;-85
2023/07/25 05:46:12;;;;;;;11.50;4.68;;;16.50;99.90;;;;;;4983237;28;20028;-85
2023/07/25 05:48:38;;;;;;;6.63;4.45;;;16.50;99.90;;;;;;4985377;28;20027;-85
2023/07/25 05:51:03;;;;;;;6.03;4.05;;;16.50;99.90;;;;;;4985547;28;20089;-85
2023/07/25 05:53:29;;;;;;;7.28;3.85;;;16.40;99.90;;;;;;4985837;28;20026;-86
2023/07/25 05:55:54;;;;;;;5.95;3.97;;;16.40;99.90;;;;;;4984540;28;20057;-85
2023/07/25 05:58:20;;;;;;;6.90;4.30;;;16.40;99.90;;;;;;4983857;28;20118;-86
2023/07/25 06:00:47;;;;;;;7.97;4.50;;;16.30;99.90;;;;;;4983678;28;20026;-85
2023/07/25 06:03:14;;;;;;;9.95;4.60;;;16.30;99.90;;;;;;4983886;28;20026;-86
2023/07/25 06:05:40;;;;;;;7.55;4.55;;;16.30;99.90;;;;;;4983748;28;20041;-85
2023/07/25 06:08:06;;;;;;;8.27;4.45;;;16.30;99.90;;;;;;4983639;28;20027;-86
2023/07/25 06:10:32;;;;;;;8.00;5.00;;;16.40;99.90;;;;;;4981624;28;20117;-85
2023/07/25 06:12:58;;;;;;;9.65;4.50;;;16.40;99.90;;;;;;4981088;28;20037;-85
2023/07/25 06:15:24;;;;;;;6.75;4.57;;;16.40;99.90;;;;;;4974619;28;20089;-85
2023/07/25 06:17:50;;;;;;;8.60;5.07;;;16.50;99.90;;;;;;4972880;28;20026;-84
2023/07/25 06:20:15;;;;;;;7.40;4.57;;;16.50;99.90;;;;;;4974908;28;20112;-84
2023/07/25 06:22:41;;;;;;;5.97;4.03;;;16.50;99.90;;;;;;4975709;28;20165;-85
2023/07/25 06:25:08;;;;;;;5.15;3.90;;;16.60;99.90;;;;;;4973936;28;20048;-85
2023/07/25 06:27:34;;;;;;;5.45;3.90;;;16.60;99.90;;;;;;4973528;28;20022;-85
2023/07/25 06:30:03;;;;;;;7.00;4.30;;;16.60;99.90;;;;;;4976829;28;20054;-85
2023/07/25 06:32:30;;;;;;;7.60;4.32;;;16.60;99.90;;;;;;4974015;28;20030;-84
2023/07/25 06:34:56;;;;;;;6.25;4.22;;;16.70;99.90;;;;;;4975481;28;20040;-84
2023/07/25 06:37:21;;;;;;;6.18;4.00;;;16.70;99.90;;;;;;4976224;28;20035;-85
2023/07/25 06:39:47;;;;;;;5.40;3.90;;;16.80;99.90;;;;;;4972616;28;20189;-85
2023/07/25 06:42:12;;;;;;;9.02;4.47;;;16.80;99.90;;;;;;4975020;28;20039;-85
2023/07/25 06:44:38;;;;;;;6.82;4.13;;;16.90;99.90;;;;;;4975684;28;20400;-84
2023/07/25 06:47:04;;;;;;;8.10;3.90;;;17.00;99.90;;;;;;4975062;28;20034;-84
2023/07/25 06:49:29;;;;;;;6.30;4.22;;;17.00;99.90;;;;;;4975289;28;20118;-85
2023/07/25 06:51:55;;;;;;;6.32;3.50;;;17.20;99.90;;;;;;4973685;28;20041;-84
2023/07/25 06:54:21;;;;;;;5.35;3.50;;;17.20;99.90;;;;;;4975414;28;20513;-85
2023/07/25 06:56:47;;;;;;;6.72;3.92;;;17.30;99.90;;;;;;4976830;28;20030;-85
2023/07/25 06:59:13;;;;;;;5.93;3.70;;;17.30;99.90;;;;;;4977648;28;20100;-84
2023/07/25 07:01:38;;;;;;;6.85;3.65;;;17.40;99.90;;;;;;4976043;28;20040;-85
2023/07/25 07:04:04;;;;;;;5.53;3.60;;;17.40;99.90;;;;;;4976672;28;20137;-85
2023/07/25 07:06:29;;;;;;;8.00;4.35;;;17.50;99.90;;;;;;4978270;28;20039;-84
2023/07/25 07:08:55;;;;;;;6.10;3.70;;;17.60;99.90;;;;;;4979998;28;20307;-84
2023/07/25 07:11:20;;;;;;;6.57;4.05;;;17.70;99.90;;;;;;4977629;28;20122;-84
2023/07/25 07:13:46;;;;;;;6.47;4.13;;;17.70;99.90;;;;;;4976982;28;20534;-83
2023/07/25 07:16:12;;;;;;;5.95;3.80;;;17.80;99.90;;;;;;4983380;28;21459;-84
2023/07/25 07:18:37;;;;;;;7.22;4.35;;;18.00;99.90;;;;;;4985135;28;21481;-82
2023/07/25 07:21:03;;;;;;;9.48;4.00;;;18.10;99.90;;;;;;4987193;28;20090;-84
2023/07/25 07:23:28;;;;;;;7.75;3.53;;;18.20;99.90;;;;;;4984803;28;20046;-84
2023/07/25 07:25:54;;;;;;;5.45;3.70;;;18.30;99.90;;;;;;4983897;28;20096;-84
2023/07/25 07:28:19;;;;;;;6.32;3.75;;;18.40;99.90;;;;;;4983927;28;20026;-85
2023/07/25 07:30:49;;;;;;;8.73;4.00;;;18.50;99.90;;;;;;4985989;28;20029;-84
2023/07/25 07:33:15;;;;;;;6.25;3.80;;;18.60;99.90;;;;;;4986802;28;20030;-85
2023/07/25 07:35:41;;;;;;;5.03;3.30;;;18.80;99.90;;;;;;4984912;28;20096;-84
2023/07/25 07:38:06;;;;;;;5.55;3.38;;;18.80;99.90;;;;;;4982244;28;20384;-84
2023/07/25 07:40:33;;;;;;;3.90;2.90;;;18.90;99.90;;;;;;4982112;28;20026;-84
2023/07/25 07:42:59;;;;;;;4.22;3.00;;;18.90;99.90;;;;;;4987318;28;20477;-84
2023/07/25 07:45:25;;;;;;;5.15;2.85;;;18.90;99.90;;;;;;4987313;28;20093;-83
2023/07/25 07:47:51;;;;;;;3.38;2.78;;;18.90;99.90;;;;;;4986351;28;20061;-84
2023/07/25 07:50:17;;;;;;;3.63;2.90;;;18.90;99.90;;;;;;4987296;28;20062;-84
2023/07/25 07:52:43;;;;;;;5.63;2.80;;;18.90;99.90;;;;;;4986104;28;20025;-83
2023/07/25 07:55:10;;;;;;;4.82;2.85;;;18.90;99.90;;;;;;4986308;28;20041;-83
2023/07/25 07:57:43;;;;;;;5.60;2.95;;;18.80;99.90;;;;;;4984010;28;20665;-84
2023/07/25 08:00:11;;;;;;;3.42;2.70;;;18.70;99.90;;;;;;4985041;28;20034;-84
2023/07/25 08:02:37;;;;;;;3.85;3.00;;;18.70;99.90;;;;;;4986262;28;20053;-83
2023/07/25 08:05:03;;;;;;;6.43;2.92;;;18.60;99.90;;;;;;4985583;28;21006;-84
2023/07/25 08:07:29;;;;;;;4.18;2.88;;;18.50;99.90;;;;;;4983478;28;20736;-84
2023/07/25 08:09:55;;;;;;;3.28;2.50;;;18.40;99.90;;;;;;4983694;28;20031;-85
2023/07/25 08:12:21;;;;;;;5.47;2.90;;;18.30;99.90;;;;;;4984937;28;20120;-84
2023/07/25 08:14:47;;;;;;;5.25;3.08;;;18.20;99.90;;;;;;4983441;28;20037;-85
2023/07/25 08:17:13;;;;;;;4.30;2.90;;;18.10;99.90;;;;;;4985641;28;20029;-85
2023/07/25 08:19:39;;;;;;;4.28;2.58;;;18.20;99.90;;;;;;4984823;28;20796;-85
2023/07/25 08:22:05;;;;;;;6.35;3.15;;;18.10;99.90;;;;;;4984376;28;20073;-85
2023/07/25 08:24:32;;;;;;;5.65;3.85;;;18.10;99.90;;;;;;4983937;28;21123;-86
2023/07/25 08:27:00;;;;;;;4.93;3.20;;;18.00;99.90;;;;;;4985357;28;20063;-85
2023/07/25 08:29:26;;;;;;;4.05;3.08;;;17.90;99.90;;;;;;4985254;28;20404;-85
2023/07/25 08:31:52;;;;;;;4.45;2.63;;;17.80;99.90;;;;;;4984009;28;20401;-85
2023/07/25 08:34:18;;;;;;;5.18;2.60;;;17.70;99.90;;;;;;4984746;28;20026;-84
2023/07/25 08:36:43;;;;;;;5.63;3.10;;;17.60;99.90;;;;;;4983078;28;20026;-84
2023/07/25 08:39:09;;;;;;;5.60;3.13;;;17.50;99.90;;;;;;4983853;28;20021;-84
2023/07/25 08:41:49;;;;;;;5.20;2.85;;;17.40;99.90;;;;;;4985358;28;20030;-84
2023/07/25 08:44:19;;;;;;;4.20;2.80;;;17.40;99.90;;;;;;4984318;28;20027;-84
2023/07/25 08:46:45;;;;;;;4.82;2.63;;;17.40;99.90;;;;;;4984338;28;20101;-85
2023/07/25 08:49:15;;;;;;;4.80;3.28;;;17.40;99.90;;;;;;4983422;28;20531;-85
2023/07/25 08:51:43;;;;;;;5.40;2.88;;;17.40;99.90;;;;;;4984505;28;20092;-85
2023/07/25 08:54:14;;;;;;;5.65;3.08;;;17.50;99.90;;;;;;4984679;28;21548;-85
2023/07/25 08:56:40;;;;;;;5.80;2.88;;;17.50;99.90;;;;;;4981915;28;20126;-84
2023/07/25 08:59:06;;;;;;;4.93;2.90;;;17.60;99.90;;;;;;4982861;28;20042;-84
2023/07/25 09:01:32;;;;;;;4.95;2.70;;;17.60;99.90;;;;;;4984015;28;20038;-85
2023/07/25 09:04:01;;;;;;;7.80;3.17;;;17.60;99.90;;;;;;4983191;28;20037;-84
2023/07/25 09:06:30;;;;;;;4.03;2.80;;;17.60;99.90;;;;;;4983973;28;20030;-84
2023/07/25 09:08:55;;;;;;;7.13;2.83;;;17.60;99.90;;;;;;4983604;28;20018;-85
2023/07/25 09:11:21;;;;;;;5.82;2.65;;;17.60;99.90;;;;;;4985356;28;20448;-85
2023/07/25 09:13:48;;;;;;;4.80;2.70;;;17.60;99.90;;;;;;4984179;28;20034;-84
2023/07/25 09:16:14;;;;;;;3.58;2.40;;;17.50;99.90;;;;;;4983589;28;20018;-85
2023/07/25 09:18:40;;;;;;;5.20;2.78;;;17.50;99.90;;;;;;4984311;28;20044;-84
2023/07/25 09:21:06;;;;;;;3.95;2.50;;;17.60;99.90;;;;;;4986042;28;20038;-84
2023/07/25 09:23:32;;;;;;;3.97;2.40;;;17.60;99.90;;;;;;4984993;28;20451;-84
2023/07/25 09:26:06;;;;;;;3.40;2.60;;;17.70;99.90;;;;;;4984901;28;20042;-83
2023/07/25 09:28:32;;;;;;;4.40;2.78;;;17.70;99.90;;;;;;4984216;28;20035;-84
2023/07/25 09:31:02;;;;;;;5.57;2.65;;;17.70;99.90;;;;;;4983318;28;20045;-84
2023/07/25 09:33:28;;;;;;;4.03;2.58;;;17.80;99.90;;;;;;4984648;28;20844;-85
2023/07/25 09:35:54;;;;;;;4.30;2.50;;;17.90;99.90;;;;;;4984749;28;20512;-83
2023/07/25 09:38:20;;;;;;;2.88;2.25;;;17.90;99.90;;;;;;4984531;28;20041;-83
2023/07/25 09:40:47;;;;;;;3.58;2.70;;;17.90;99.90;;;;;;4983316;28;20058;-84
2023/07/25 09:43:26;;;;;;;4.28;2.20;;;17.90;99.90;;;;;;4984437;28;20034;-84
2023/07/25 09:45:52;;;;;;;4.20;2.53;;;18.00;99.90;;;;;;4984974;28;20054;-84
2023/07/25 09:48:18;;;;;;;5.50;2.40;;;18.00;99.90;;;;;;4984620;28;20034;-83
2023/07/25 09:50:44;;;;;;;4.85;2.50;;;17.90;99.90;;;;;;4983586;28;20911;-84
2023/07/25 09:53:11;;;;;;;5.90;2.50;;;17.90;99.90;;;;;;4985424;28;21027;-84
2023/07/25 09:55:37;;;;;;;3.67;2.20;;;17.90;99.90;;;;;;4984246;28;20444;-84
2023/07/25 09:58:04;;;;;;;3.15;2.22;;;17.90;99.90;;;;;;4983632;28;20027;-84
2023/07/25 10:00:30;;;;;;;4.22;2.13;;;18.00;99.90;;;;;;4983357;28;20026;-84
2023/07/25 10:02:57;;;;;;;8.35;3.00;;;18.10;99.90;;;;;;4985237;28;20110;-84
2023/07/25 10:05:23;;;;;;;3.45;2.20;;;18.10;99.90;;;;;;4984221;28;20026;-73
2023/07/25 10:07:49;;;;;;;4.93;2.35;;;18.20;99.90;;;;;;4984849;28;20104;-86
2023/07/25 10:10:17;;;;;;;2.80;2.08;;;18.50;99.90;;;;;;4985314;28;20033;-83
2023/07/25 10:12:42;;;;;;;4.20;2.50;;;18.60;99.90;;;;;;4985287;28;20101;-84
2023/07/25 10:15:10;;;;;;;4.38;2.35;;;18.80;99.90;;;;;;4986166;28;20049;-84
2023/07/25 10:17:35;;;;;;;2.80;2.05;;;18.90;99.90;;;;;;4985810;28;20033;-84
2023/07/25 10:20:05;;;;;;;3.97;2.10;;;19.00;99.90;;;;;;4984033;28;20026;-83
2023/07/25 10:22:38;;;;;;;8.90;2.13;;;19.00;99.90;;;;;;4985115;28;20060;-85
2023/07/25 10:25:17;;;;;;;7.35;2.42;;;19.20;99.90;;;;;;4984188;28;20030;-84
2023/07/25 10:27:42;;;;;;;4.38;1.98;;;19.50;99.90;;;;;;4984809;28;20022;-83
2023/07/25 10:30:25;;;;;;;3.45;2.00;;;19.60;99.90;;;;;;4984220;28;20065;-83
2023/07/25 10:32:53;;;;;;;3.60;1.88;;;19.80;99.90;;;;;;4984547;28;20030;-84
2023/07/25 10:35:38;;;;;;;4.68;2.20;;;19.70;99.90;;;;;;4987930;28;20038;-84
2023/07/25 10:38:12;;;;;;;2.60;1.85;;;19.70;99.90;;;;;;4989368;28;20378;-83
2023/07/25 10:40:53;;;;;;;9.90;2.20;;;19.60;99.90;;;;;;4988047;28;20033;-83
2023/07/25 10:43:21;;;;;;;3.08;2.10;;;19.60;99.90;;;;;;4988579;28;20037;-83
2023/07/25 10:45:51;;;;;;;2.95;1.90;;;19.60;99.90;;;;;;4988560;28;20037;-84
2023/07/25 10:48:34;;;;;;;3.25;2.00;;;19.60;99.90;;;;;;4989428;28;20026;-83
2023/07/25 10:51:07;;;;;;;2.60;1.88;;;19.60;99.90;;;;;;4991443;28;20025;-85
2023/07/25 10:53:33;;;;;;;3.90;2.10;;;19.60;99.90;;;;;;4985724;28;20036;-85
2023/07/25 10:56:06;;;;;;;3.65;2.33;;;19.60;99.90;;;;;;4986501;28;20057;-84
2023/07/25 10:58:34;;;;;;;3.35;2.47;;;19.50;99.90;;;;;;4985590;28;20046;-85
2023/07/25 11:01:00;;;;;;;3.55;2.15;;;19.50;99.90;;;;;;4982414;28;20038;-83
2023/07/25 11:03:30;;;;;;;3.28;1.48;;;19.50;99.90;;;;;;4983784;28;20555;-85
2023/07/25 11:06:08;;;;;;;3.83;2.13;;;19.40;99.90;;;;;;4986025;28;20034;-83
2023/07/25 11:08:38;;;;;;;2.60;1.95;;;19.40;99.90;;;;;;4983628;28;20444;-84
2023/07/25 11:11:07;;;;;;;2.30;1.60;;;19.30;99.90;;;;;;4984959;28;20034;-84
2023/07/25 11:13:34;;;;;;;4.00;1.90;;;19.30;99.90;;;;;;4987420;28;20026;-85
2023/07/25 11:16:06;;;;;;;2.33;1.70;;;19.30;99.90;;;;;;4985533;28;20161;-86
2023/07/25 11:18:38;;;;;;;3.72;2.00;;;19.50;99.90;;;;;;4985117;28;20477;-85
2023/07/25 11:21:07;;;;;;;4.05;1.88;;;19.80;99.90;;;;;;4985776;28;20034;-84
2023/07/25 11:23:34;;;;;;;5.07;2.28;;;20.20;99.90;;;;;;4986228;28;20582;-86
2023/07/25 11:26:02;;;;;;;10.50;1.90;;;20.40;99.90;;;;;;4984476;28;20068;-84
2023/07/25 11:28:28;;;;;;;3.97;2.03;;;20.50;99.90;;;;;;4986532;28;20555;-84
2023/07/25 11:30:55;;;;;;;6.55;2.00;;;20.10;99.90;;;;;;4985563;28;20065;-83
2023/07/25 11:33:21;;;;;;;3.95;1.70;;;19.70;99.90;;;;;;4985724;28;20021;-85
2023/07/25 11:35:54;;;;;;;5.32;1.70;;;19.40;99.90;;;;;;4986072;28;20030;-85
2023/07/25 11:38:20;;;;;;;2.92;1.90;;;19.20;99.90;;;;;;4986248;28;20030;-84
2023/07/25 11:40:54;;;;;;;3.88;2.17;;;18.90;99.90;;;;;;4985073;28;20030;-85
2023/07/25 11:43:20;;;;;;;4.20;1.60;;;18.70;99.90;;;;;;4986683;28;20069;-83
2023/07/25 11:45:47;;;;;;;5.28;2.20;;;18.50;99.90;;;;;;4985055;28;21077;-85
2023/07/25 11:48:19;;;;;;;2.97;1.90;;;18.30;99.90;;;;;;4985258;28;20037;-85
2023/07/25 11:50:48;;;;;;;4.22;2.05;;;18.10;99.90;;;;;;4983592;28;20778;-84
2023/07/25 11:53:19;;;;;;;2.90;1.55;;;17.80;99.90;;;;;;4982875;28;20031;-86
2023/07/25 11:55:45;;;;;;;3.67;1.95;;;17.50;99.90;;;;;;4984140;28;20038;-84
2023/07/25 11:58:16;;;;;;;4.15;1.80;;;17.30;99.90;;;;;;4985374;28;20552;-86
2023/07/25 12:00:42;;;;;;;3.10;2.13;;;17.20;99.90;;;;;;4985086;28;20038;-85
2023/07/25 12:03:20;;;;;;;2.72;1.90;;;17.10;99.90;;;;;;4986135;28;20045;-85
2023/07/25 12:06:00;;;;;;;4.72;1.92;;;17.10;99.90;;;;;;4983163;28;20039;-85
2023/07/25 12:08:33;;;;;;;3.63;1.92;;;17.00;99.90;;;;;;4984471;28;20805;-85
2023/07/25 12:11:02;;;;;;;4.40;2.03;;;16.90;99.90;;;;;;4982300;28;20026;-86
2023/07/25 12:13:28;;;;;;;3.80;2.42;;;16.90;99.90;;;;;;4984246;28;20030;-86
2023/07/25 12:15:56;;;;;;;4.03;2.10;;;16.90;99.90;;;;;;4983031;28;20030;-88
2023/07/25 12:18:29;;;;;;;5.88;2.33;;;17.00;99.90;;;;;;4980866;28;20101;-87
2023/07/25 12:20:57;;;;;;;4.05;2.15;;;17.20;99.90;;;;;;4983378;28;20206;-86
2023/07/25 12:23:29;;;;;;;3.97;2.00;;;17.40;99.90;;;;;;4984247;28;20030;-86
2023/07/25 12:25:56;;;;;;;7.47;2.17;;;17.60;99.90;;;;;;4987617;28;20089;-81
2023/07/25 12:28:23;;;;;;;4.82;2.00;;;17.80;99.90;;;;;;4987348;28;20035;-84
2023/07/25 12:30:49;;;;;;;5.03;2.40;;;17.90;99.90;;;;;;4984996;28;20047;-84
2023/07/25 12:33:15;;;;;;;3.92;2.13;;;17.80;99.90;;;;;;4984980;28;20034;-85
2023/07/25 12:35:40;;;;;;;6.03;2.22;;;17.80;99.90;;;;;;4985805;28;20026;-85
2023/07/25 12:38:06;;;;;;;4.25;1.95;;;17.80;99.90;;;;;;4983885;28;20089;-84
2023/07/25 12:40:31;;;;;;;4.20;2.20;;;17.80;99.90;;;;;;4983156;28;20026;-84
2023/07/25 12:42:57;;;;;;;5.63;2.00;;;17.60;99.90;;;;;;4985683;28;21005;-84